sensor_id;sensor_type;location;lat;lon;timestamp;P1;durP1;ratioP1;P2;durP2;ratioP2
75787;SDS011;64406;50.024;14.492;2023-02-13T00:00:35;21.90;;;11.15;;
75787;SDS011;64406;50.024;14.492;2023-02-13T00:03:18;18.15;;;11.30;;
75787;SDS011;64406;50.024;14.492;2023-02-13T00:05:43;21.20;;;11.48;;
75787;SDS011;64406;50.024;14.492;2023-02-13T00:08:09;22.17;;;12.43;;
75787;SDS011;64406;50.024;14.492;2023-02-13T00:10:35;19.65;;;10.43;;
75787;SDS011;64406;50.024;14.492;2023-02-13T00:13:01;23.10;;;11.27;;
75787;SDS011;64406;50.024;14.492;2023-02-13T00:15:27;17.92;;;9.57;;
75787;SDS011;64406;50.024;14.492;2023-02-13T00:17:53;18.73;;;10.60;;
75787;SDS011;64406;50.024;14.492;2023-02-13T00:20:18;19.45;;;10.27;;
75787;SDS011;64406;50.024;14.492;2023-02-13T00:22:44;20.10;;;11.82;;
75787;SDS011;64406;50.024;14.492;2023-02-13T00:25:09;17.75;;;10.18;;
75787;SDS011;64406;50.024;14.492;2023-02-13T00:27:35;23.67;;;12.38;;
75787;SDS011;64406;50.024;14.492;2023-02-13T00:30:01;22.48;;;13.10;;
75787;SDS011;64406;50.024;14.492;2023-02-13T00:32:28;26.42;;;14.15;;
75787;SDS011;64406;50.024;14.492;2023-02-13T00:34:55;23.30;;;12.77;;
75787;SDS011;64406;50.024;14.492;2023-02-13T00:37:20;20.40;;;12.43;;
75787;SDS011;64406;50.024;14.492;2023-02-13T00:39:46;23.92;;;12.77;;
75787;SDS011;64406;50.024;14.492;2023-02-13T00:42:12;22.73;;;13.30;;
75787;SDS011;64406;50.024;14.492;2023-02-13T00:44:37;26.23;;;12.75;;
75787;SDS011;64406;50.024;14.492;2023-02-13T00:47:03;22.27;;;13.05;;
75787;SDS011;64406;50.024;14.492;2023-02-13T00:49:28;23.17;;;12.40;;
75787;SDS011;64406;50.024;14.492;2023-02-13T00:51:54;22.75;;;12.63;;
75787;SDS011;64406;50.024;14.492;2023-02-13T00:54:19;28.67;;;14.95;;
75787;SDS011;64406;50.024;14.492;2023-02-13T00:56:45;26.42;;;13.73;;
75787;SDS011;64406;50.024;14.492;2023-02-13T00:59:11;25.90;;;14.63;;
75787;SDS011;64406;50.024;14.492;2023-02-13T01:01:39;25.17;;;14.15;;
75787;SDS011;64406;50.024;14.492;2023-02-13T01:04:05;31.13;;;15.90;;
75787;SDS011;64406;50.024;14.492;2023-02-13T01:06:31;28.20;;;14.82;;
75787;SDS011;64406;50.024;14.492;2023-02-13T01:08:56;28.85;;;15.50;;
75787;SDS011;64406;50.024;14.492;2023-02-13T01:11:22;29.85;;;16.15;;
75787;SDS011;64406;50.024;14.492;2023-02-13T01:13:47;30.38;;;15.38;;
75787;SDS011;64406;50.024;14.492;2023-02-13T01:16:13;29.95;;;15.50;;
75787;SDS011;64406;50.024;14.492;2023-02-13T01:18:42;27.15;;;15.10;;
75787;SDS011;64406;50.024;14.492;2023-02-13T01:21:13;27.45;;;15.90;;
75787;SDS011;64406;50.024;14.492;2023-02-13T01:23:44;28.73;;;16.55;;
75787;SDS011;64406;50.024;14.492;2023-02-13T01:26:13;33.33;;;15.93;;
75787;SDS011;64406;50.024;14.492;2023-02-13T01:28:42;31.15;;;16.48;;
75787;SDS011;64406;50.024;14.492;2023-02-13T01:31:08;30.40;;;15.07;;
75787;SDS011;64406;50.024;14.492;2023-02-13T01:33:34;25.65;;;13.85;;
75787;SDS011;64406;50.024;14.492;2023-02-13T01:36:10;28.45;;;14.80;;
75787;SDS011;64406;50.024;14.492;2023-02-13T01:38:38;28.33;;;14.57;;
75787;SDS011;64406;50.024;14.492;2023-02-13T01:41:04;28.52;;;14.70;;
75787;SDS011;64406;50.024;14.492;2023-02-13T01:43:43;29.58;;;15.10;;
75787;SDS011;64406;50.024;14.492;2023-02-13T01:46:22;27.85;;;14.27;;
75787;SDS011;64406;50.024;14.492;2023-02-13T01:48:53;25.65;;;14.30;;
75787;SDS011;64406;50.024;14.492;2023-02-13T01:51:24;33.63;;;14.35;;
75787;SDS011;64406;50.024;14.492;2023-02-13T01:54:02;28.20;;;14.40;;
75787;SDS011;64406;50.024;14.492;2023-02-13T01:56:36;33.17;;;15.68;;
75787;SDS011;64406;50.024;14.492;2023-02-13T01:59:13;26.67;;;14.05;;
75787;SDS011;64406;50.024;14.492;2023-02-13T02:01:44;26.17;;;12.98;;
75787;SDS011;64406;50.024;14.492;2023-02-13T02:04:17;25.80;;;14.23;;
75787;SDS011;64406;50.024;14.492;2023-02-13T02:06:48;23.85;;;13.40;;
75787;SDS011;64406;50.024;14.492;2023-02-13T02:09:18;23.90;;;13.75;;
75787;SDS011;64406;50.024;14.492;2023-02-13T02:14:19;21.98;;;13.45;;
75787;SDS011;64406;50.024;14.492;2023-02-13T02:16:45;25.17;;;14.13;;
75787;SDS011;64406;50.024;14.492;2023-02-13T02:19:19;26.10;;;14.75;;
75787;SDS011;64406;50.024;14.492;2023-02-13T02:22:00;29.85;;;15.40;;
75787;SDS011;64406;50.024;14.492;2023-02-13T02:27:38;33.10;;;15.15;;
75787;SDS011;64406;50.024;14.492;2023-02-13T02:30:31;22.85;;;13.60;;
75787;SDS011;64406;50.024;14.492;2023-02-13T02:33:17;28.60;;;14.75;;
75787;SDS011;64406;50.024;14.492;2023-02-13T02:36:01;28.67;;;14.32;;
75787;SDS011;64406;50.024;14.492;2023-02-13T02:38:40;27.90;;;14.15;;
75787;SDS011;64406;50.024;14.492;2023-02-13T02:41:41;23.23;;;12.48;;
75787;SDS011;64406;50.024;14.492;2023-02-13T02:44:16;25.85;;;13.00;;
75787;SDS011;64406;50.024;14.492;2023-02-13T02:47:03;24.52;;;13.02;;
75787;SDS011;64406;50.024;14.492;2023-02-13T02:50:12;23.17;;;13.27;;
75787;SDS011;64406;50.024;14.492;2023-02-13T02:53:11;23.67;;;14.02;;
75787;SDS011;64406;50.024;14.492;2023-02-13T02:58:38;26.48;;;13.52;;
75787;SDS011;64406;50.024;14.492;2023-02-13T03:01:37;25.77;;;13.82;;
75787;SDS011;64406;50.024;14.492;2023-02-13T03:04:25;25.80;;;13.50;;
75787;SDS011;64406;50.024;14.492;2023-02-13T03:07:15;26.23;;;12.77;;
75787;SDS011;64406;50.024;14.492;2023-02-13T03:09:44;24.40;;;12.68;;
75787;SDS011;64406;50.024;14.492;2023-02-13T03:12:45;27.13;;;13.65;;
75787;SDS011;64406;50.024;14.492;2023-02-13T03:15:35;22.58;;;13.63;;
75787;SDS011;64406;50.024;14.492;2023-02-13T03:18:23;23.60;;;12.13;;
75787;SDS011;64406;50.024;14.492;2023-02-13T03:39:18;20.95;;;12.60;;
75787;SDS011;64406;50.024;14.492;2023-02-13T03:41:44;24.83;;;12.40;;
75787;SDS011;64406;50.024;14.492;2023-02-13T03:46:54;23.17;;;11.95;;
75787;SDS011;64406;50.024;14.492;2023-02-13T03:49:56;25.05;;;12.98;;
75787;SDS011;64406;50.024;14.492;2023-02-13T03:52:32;19.45;;;11.10;;
75787;SDS011;64406;50.024;14.492;2023-02-13T03:55:05;23.50;;;12.50;;
75787;SDS011;64406;50.024;14.492;2023-02-13T03:57:55;21.55;;;11.85;;
75787;SDS011;64406;50.024;14.492;2023-02-13T04:00:43;20.75;;;11.48;;
75787;SDS011;64406;50.024;14.492;2023-02-13T04:06:16;22.48;;;12.45;;
75787;SDS011;64406;50.024;14.492;2023-02-13T04:08:46;21.88;;;11.25;;
75787;SDS011;64406;50.024;14.492;2023-02-13T04:13:56;23.05;;;12.10;;
75787;SDS011;64406;50.024;14.492;2023-02-13T04:16:31;23.20;;;11.00;;
75787;SDS011;64406;50.024;14.492;2023-02-13T04:19:00;28.25;;;11.38;;
75787;SDS011;64406;50.024;14.492;2023-02-13T04:21:26;21.63;;;11.85;;
75787;SDS011;64406;50.024;14.492;2023-02-13T04:23:56;19.55;;;10.63;;
75787;SDS011;64406;50.024;14.492;2023-02-13T04:26:22;16.10;;;9.82;;
75787;SDS011;64406;50.024;14.492;2023-02-13T04:28:48;21.35;;;11.05;;
75787;SDS011;64406;50.024;14.492;2023-02-13T04:31:13;17.60;;;9.55;;
75787;SDS011;64406;50.024;14.492;2023-02-13T04:33:41;18.92;;;10.15;;
75787;SDS011;64406;50.024;14.492;2023-02-13T04:36:07;20.02;;;9.93;;
75787;SDS011;64406;50.024;14.492;2023-02-13T04:38:34;23.60;;;9.70;;
75787;SDS011;64406;50.024;14.492;2023-02-13T04:40:59;20.00;;;11.43;;
75787;SDS011;64406;50.024;14.492;2023-02-13T04:43:25;22.05;;;10.95;;
75787;SDS011;64406;50.024;14.492;2023-02-13T04:45:51;25.10;;;12.15;;
75787;SDS011;64406;50.024;14.492;2023-02-13T04:48:16;18.10;;;10.70;;
75787;SDS011;64406;50.024;14.492;2023-02-13T04:50:42;19.90;;;11.55;;
75787;SDS011;64406;50.024;14.492;2023-02-13T04:53:08;23.35;;;11.65;;
75787;SDS011;64406;50.024;14.492;2023-02-13T04:55:33;19.08;;;10.70;;
75787;SDS011;64406;50.024;14.492;2023-02-13T04:57:59;23.60;;;11.38;;
75787;SDS011;64406;50.024;14.492;2023-02-13T05:00:25;22.33;;;11.93;;
75787;SDS011;64406;50.024;14.492;2023-02-13T05:02:52;17.92;;;10.15;;
75787;SDS011;64406;50.024;14.492;2023-02-13T05:05:19;22.33;;;11.23;;
75787;SDS011;64406;50.024;14.492;2023-02-13T05:07:45;22.17;;;10.93;;
75787;SDS011;64406;50.024;14.492;2023-02-13T05:10:11;20.67;;;10.98;;
75787;SDS011;64406;50.024;14.492;2023-02-13T05:12:37;22.52;;;10.30;;
75787;SDS011;64406;50.024;14.492;2023-02-13T05:15:04;19.33;;;11.02;;
75787;SDS011;64406;50.024;14.492;2023-02-13T05:17:30;23.33;;;11.18;;
75787;SDS011;64406;50.024;14.492;2023-02-13T05:19:56;18.05;;;11.20;;
75787;SDS011;64406;50.024;14.492;2023-02-13T05:22:23;26.25;;;11.77;;
75787;SDS011;64406;50.024;14.492;2023-02-13T05:27:33;20.60;;;10.65;;
75787;SDS011;64406;50.024;14.492;2023-02-13T05:29:59;19.17;;;11.27;;
75787;SDS011;64406;50.024;14.492;2023-02-13T05:32:25;19.80;;;11.15;;
75787;SDS011;64406;50.024;14.492;2023-02-13T05:34:50;19.73;;;10.85;;
75787;SDS011;64406;50.024;14.492;2023-02-13T05:37:17;20.98;;;10.75;;
75787;SDS011;64406;50.024;14.492;2023-02-13T05:39:42;17.73;;;10.35;;
75787;SDS011;64406;50.024;14.492;2023-02-13T05:42:08;19.98;;;10.95;;
75787;SDS011;64406;50.024;14.492;2023-02-13T05:44:34;18.75;;;10.88;;
75787;SDS011;64406;50.024;14.492;2023-02-13T05:47:00;22.83;;;12.10;;
75787;SDS011;64406;50.024;14.492;2023-02-13T05:49:26;20.25;;;11.45;;
75787;SDS011;64406;50.024;14.492;2023-02-13T05:51:52;18.27;;;10.70;;
75787;SDS011;64406;50.024;14.492;2023-02-13T05:54:17;19.55;;;11.70;;
75787;SDS011;64406;50.024;14.492;2023-02-13T05:56:43;20.55;;;12.35;;
75787;SDS011;64406;50.024;14.492;2023-02-13T05:59:10;20.10;;;11.43;;
75787;SDS011;64406;50.024;14.492;2023-02-13T06:01:35;20.27;;;10.60;;
75787;SDS011;64406;50.024;14.492;2023-02-13T06:04:01;21.13;;;10.50;;
75787;SDS011;64406;50.024;14.492;2023-02-13T06:06:27;21.00;;;12.18;;
75787;SDS011;64406;50.024;14.492;2023-02-13T06:08:52;23.92;;;12.82;;
75787;SDS011;64406;50.024;14.492;2023-02-13T06:11:18;26.40;;;11.32;;
75787;SDS011;64406;50.024;14.492;2023-02-13T06:13:44;22.77;;;12.23;;
75787;SDS011;64406;50.024;14.492;2023-02-13T06:16:10;23.40;;;11.32;;
75787;SDS011;64406;50.024;14.492;2023-02-13T06:18:36;22.33;;;11.40;;
75787;SDS011;64406;50.024;14.492;2023-02-13T06:21:02;22.85;;;12.30;;
75787;SDS011;64406;50.024;14.492;2023-02-13T06:23:28;19.83;;;11.57;;
75787;SDS011;64406;50.024;14.492;2023-02-13T06:25:54;22.10;;;12.05;;
75787;SDS011;64406;50.024;14.492;2023-02-13T06:28:20;19.60;;;12.18;;
75787;SDS011;64406;50.024;14.492;2023-02-13T06:30:46;20.95;;;11.23;;
75787;SDS011;64406;50.024;14.492;2023-02-13T06:33:13;25.08;;;11.85;;
75787;SDS011;64406;50.024;14.492;2023-02-13T06:35:39;27.23;;;12.07;;
75787;SDS011;64406;50.024;14.492;2023-02-13T06:38:05;24.33;;;11.55;;
75787;SDS011;64406;50.024;14.492;2023-02-13T06:40:31;21.05;;;12.10;;
75787;SDS011;64406;50.024;14.492;2023-02-13T06:42:58;21.25;;;11.57;;
75787;SDS011;64406;50.024;14.492;2023-02-13T06:45:24;24.92;;;12.25;;
75787;SDS011;64406;50.024;14.492;2023-02-13T06:47:49;20.50;;;11.75;;
75787;SDS011;64406;50.024;14.492;2023-02-13T06:50:16;23.30;;;11.88;;
75787;SDS011;64406;50.024;14.492;2023-02-13T06:52:46;23.58;;;11.02;;
75787;SDS011;64406;50.024;14.492;2023-02-13T06:55:15;24.23;;;13.15;;
75787;SDS011;64406;50.024;14.492;2023-02-13T06:57:42;19.90;;;11.40;;
75787;SDS011;64406;50.024;14.492;2023-02-13T07:00:09;22.40;;;11.05;;
75787;SDS011;64406;50.024;14.492;2023-02-13T07:02:38;20.60;;;10.63;;
75787;SDS011;64406;50.024;14.492;2023-02-13T07:05:07;21.95;;;10.82;;
75787;SDS011;64406;50.024;14.492;2023-02-13T07:07:35;19.08;;;10.68;;
75787;SDS011;64406;50.024;14.492;2023-02-13T07:10:03;20.10;;;11.68;;
75787;SDS011;64406;50.024;14.492;2023-02-13T07:12:33;18.40;;;10.30;;
75787;SDS011;64406;50.024;14.492;2023-02-13T07:15:01;21.23;;;11.13;;
75787;SDS011;64406;50.024;14.492;2023-02-13T07:17:27;16.98;;;9.52;;
75787;SDS011;64406;50.024;14.492;2023-02-13T07:19:53;19.45;;;10.32;;
75787;SDS011;64406;50.024;14.492;2023-02-13T07:22:19;20.83;;;10.65;;
75787;SDS011;64406;50.024;14.492;2023-02-13T07:24:44;17.17;;;9.93;;
75787;SDS011;64406;50.024;14.492;2023-02-13T07:27:13;23.98;;;10.02;;
75787;SDS011;64406;50.024;14.492;2023-02-13T07:29:39;20.10;;;9.82;;
75787;SDS011;64406;50.024;14.492;2023-02-13T07:32:04;21.88;;;10.35;;
75787;SDS011;64406;50.024;14.492;2023-02-13T07:34:31;24.33;;;12.63;;
75787;SDS011;64406;50.024;14.492;2023-02-13T07:36:57;20.20;;;11.27;;
75787;SDS011;64406;50.024;14.492;2023-02-13T07:39:23;23.95;;;11.65;;
75787;SDS011;64406;50.024;14.492;2023-02-13T07:41:49;18.98;;;10.82;;
75787;SDS011;64406;50.024;14.492;2023-02-13T07:44:16;21.85;;;10.93;;
75787;SDS011;64406;50.024;14.492;2023-02-13T07:46:42;21.50;;;10.10;;
75787;SDS011;64406;50.024;14.492;2023-02-13T07:49:08;15.68;;;9.85;;
75787;SDS011;64406;50.024;14.492;2023-02-13T07:51:34;19.38;;;10.07;;
75787;SDS011;64406;50.024;14.492;2023-02-13T07:54:00;20.40;;;10.60;;
75787;SDS011;64406;50.024;14.492;2023-02-13T07:56:27;20.55;;;10.68;;
75787;SDS011;64406;50.024;14.492;2023-02-13T07:58:55;23.33;;;11.23;;
75787;SDS011;64406;50.024;14.492;2023-02-13T08:01:21;21.80;;;11.48;;
75787;SDS011;64406;50.024;14.492;2023-02-13T08:03:47;24.88;;;11.82;;
75787;SDS011;64406;50.024;14.492;2023-02-13T08:06:15;19.40;;;10.52;;
75787;SDS011;64406;50.024;14.492;2023-02-13T08:08:42;19.67;;;10.45;;
75787;SDS011;64406;50.024;14.492;2023-02-13T08:11:11;19.58;;;10.30;;
75787;SDS011;64406;50.024;14.492;2023-02-13T08:14:11;18.52;;;9.82;;
75787;SDS011;64406;50.024;14.492;2023-02-13T08:16:36;23.63;;;10.93;;
75787;SDS011;64406;50.024;14.492;2023-02-13T08:19:02;19.92;;;9.50;;
75787;SDS011;64406;50.024;14.492;2023-02-13T08:21:28;15.15;;;9.02;;
75787;SDS011;64406;50.024;14.492;2023-02-13T08:23:56;16.02;;;9.90;;
75787;SDS011;64406;50.024;14.492;2023-02-13T08:26:26;25.20;;;9.45;;
75787;SDS011;64406;50.024;14.492;2023-02-13T08:29:14;19.55;;;9.40;;
75787;SDS011;64406;50.024;14.492;2023-02-13T08:31:40;18.98;;;9.90;;
75787;SDS011;64406;50.024;14.492;2023-02-13T08:34:05;16.45;;;9.52;;
75787;SDS011;64406;50.024;14.492;2023-02-13T08:36:31;18.40;;;9.65;;
75787;SDS011;64406;50.024;14.492;2023-02-13T08:38:57;15.05;;;8.45;;
75787;SDS011;64406;50.024;14.492;2023-02-13T08:41:23;21.08;;;9.95;;
75787;SDS011;64406;50.024;14.492;2023-02-13T08:43:49;16.65;;;10.05;;
75787;SDS011;64406;50.024;14.492;2023-02-13T08:46:15;16.95;;;9.73;;
75787;SDS011;64406;50.024;14.492;2023-02-13T08:48:41;19.15;;;9.73;;
75787;SDS011;64406;50.024;14.492;2023-02-13T08:51:08;16.20;;;9.18;;
75787;SDS011;64406;50.024;14.492;2023-02-13T08:53:35;17.55;;;10.05;;
75787;SDS011;64406;50.024;14.492;2023-02-13T08:56:02;16.55;;;8.13;;
75787;SDS011;64406;50.024;14.492;2023-02-13T08:58:29;13.57;;;8.38;;
75787;SDS011;64406;50.024;14.492;2023-02-13T09:00:54;16.48;;;8.82;;
75787;SDS011;64406;50.024;14.492;2023-02-13T09:03:23;13.93;;;8.48;;
75787;SDS011;64406;50.024;14.492;2023-02-13T09:05:52;18.40;;;8.40;;
75787;SDS011;64406;50.024;14.492;2023-02-13T09:08:17;15.68;;;8.80;;
75787;SDS011;64406;50.024;14.492;2023-02-13T09:10:43;18.77;;;8.52;;
75787;SDS011;64406;50.024;14.492;2023-02-13T09:13:09;13.50;;;8.10;;
75787;SDS011;64406;50.024;14.492;2023-02-13T09:15:36;14.30;;;7.90;;
75787;SDS011;64406;50.024;14.492;2023-02-13T09:18:03;16.83;;;8.68;;
75787;SDS011;64406;50.024;14.492;2023-02-13T09:20:29;20.27;;;8.95;;
75787;SDS011;64406;50.024;14.492;2023-02-13T09:22:54;12.75;;;7.90;;
75787;SDS011;64406;50.024;14.492;2023-02-13T09:25:21;15.55;;;8.60;;
75787;SDS011;64406;50.024;14.492;2023-02-13T09:27:47;14.65;;;7.80;;
75787;SDS011;64406;50.024;14.492;2023-02-13T09:30:13;15.32;;;8.32;;
75787;SDS011;64406;50.024;14.492;2023-02-13T09:32:50;15.30;;;8.80;;
75787;SDS011;64406;50.024;14.492;2023-02-13T09:35:17;14.10;;;7.75;;
75787;SDS011;64406;50.024;14.492;2023-02-13T09:37:43;13.20;;;7.60;;
75787;SDS011;64406;50.024;14.492;2023-02-13T09:42:51;13.98;;;8.15;;
75787;SDS011;64406;50.024;14.492;2023-02-13T09:45:18;11.55;;;7.57;;
75787;SDS011;64406;50.024;14.492;2023-02-13T09:47:48;14.35;;;8.00;;
75787;SDS011;64406;50.024;14.492;2023-02-13T09:50:20;16.50;;;8.05;;
75787;SDS011;64406;50.024;14.492;2023-02-13T09:52:52;12.23;;;7.35;;
75787;SDS011;64406;50.024;14.492;2023-02-13T09:55:26;14.10;;;7.93;;
75787;SDS011;64406;50.024;14.492;2023-02-13T10:01:05;12.23;;;7.05;;
75787;SDS011;64406;50.024;14.492;2023-02-13T10:06:43;14.70;;;7.75;;
75787;SDS011;64406;50.024;14.492;2023-02-13T10:09:20;18.92;;;9.13;;
75787;SDS011;64406;50.024;14.492;2023-02-13T10:14:52;14.30;;;7.85;;
75787;SDS011;64406;50.024;14.492;2023-02-13T10:17:32;14.73;;;8.93;;
75787;SDS011;64406;50.024;14.492;2023-02-13T10:20:04;13.38;;;7.55;;
75787;SDS011;64406;50.024;14.492;2023-02-13T10:22:43;13.38;;;8.27;;
75787;SDS011;64406;50.024;14.492;2023-02-13T10:25:20;15.95;;;7.65;;
75787;SDS011;64406;50.024;14.492;2023-02-13T10:28:11;12.68;;;7.90;;
75787;SDS011;64406;50.024;14.492;2023-02-13T10:30:48;15.68;;;7.78;;
75787;SDS011;64406;50.024;14.492;2023-02-13T10:33:18;12.13;;;6.95;;
75787;SDS011;64406;50.024;14.492;2023-02-13T10:35:56;12.90;;;7.78;;
75787;SDS011;64406;50.024;14.492;2023-02-13T10:38:33;13.65;;;8.18;;
75787;SDS011;64406;50.024;14.492;2023-02-13T11:00:42;17.27;;;8.00;;
75787;SDS011;64406;50.024;14.492;2023-02-13T11:03:20;13.98;;;7.65;;
75787;SDS011;64406;50.024;14.492;2023-02-13T11:05:48;13.82;;;7.82;;
75787;SDS011;64406;50.024;14.492;2023-02-13T11:14:13;12.27;;;7.60;;
75787;SDS011;64406;50.024;14.492;2023-02-13T11:16:53;13.68;;;7.28;;
75787;SDS011;64406;50.024;14.492;2023-02-13T11:19:20;14.88;;;7.90;;
75787;SDS011;64406;50.024;14.492;2023-02-13T11:21:52;13.43;;;8.05;;
75787;SDS011;64406;50.024;14.492;2023-02-13T11:24:21;11.40;;;7.68;;
75787;SDS011;64406;50.024;14.492;2023-02-13T11:26:50;17.15;;;8.18;;
75787;SDS011;64406;50.024;14.492;2023-02-13T11:29:22;14.50;;;8.35;;
75787;SDS011;64406;50.024;14.492;2023-02-13T11:32:00;11.43;;;7.30;;
75787;SDS011;64406;50.024;14.492;2023-02-13T11:34:40;13.68;;;8.00;;
75787;SDS011;64406;50.024;14.492;2023-02-13T11:37:28;14.57;;;7.15;;
75787;SDS011;64406;50.024;14.492;2023-02-13T11:39:54;10.73;;;6.72;;
75787;SDS011;64406;50.024;14.492;2023-02-13T11:42:29;10.93;;;6.63;;
75787;SDS011;64406;50.024;14.492;2023-02-13T11:45:03;13.40;;;7.70;;
75787;SDS011;64406;50.024;14.492;2023-02-13T11:47:41;10.70;;;7.10;;
75787;SDS011;64406;50.024;14.492;2023-02-13T11:53:18;11.82;;;6.50;;
75787;SDS011;64406;50.024;14.492;2023-02-13T11:58:36;12.65;;;6.70;;
75787;SDS011;64406;50.024;14.492;2023-02-13T12:03:44;11.43;;;6.72;;
75787;SDS011;64406;50.024;14.492;2023-02-13T12:06:41;9.95;;;6.50;;
75787;SDS011;64406;50.024;14.492;2023-02-13T12:09:23;9.30;;;6.10;;
75787;SDS011;64406;50.024;14.492;2023-02-13T12:11:50;10.18;;;6.53;;
75787;SDS011;64406;50.024;14.492;2023-02-13T12:14:22;9.65;;;5.70;;
75787;SDS011;64406;50.024;14.492;2023-02-13T12:16:53;11.23;;;5.78;;
75787;SDS011;64406;50.024;14.492;2023-02-13T12:27:29;11.55;;;5.00;;
75787;SDS011;64406;50.024;14.492;2023-02-13T12:30:13;8.70;;;4.95;;
75787;SDS011;64406;50.024;14.492;2023-02-13T12:33:10;8.20;;;4.85;;
75787;SDS011;64406;50.024;14.492;2023-02-13T12:41:13;7.97;;;4.82;;
75787;SDS011;64406;50.024;14.492;2023-02-13T12:43:50;7.55;;;4.53;;
75787;SDS011;64406;50.024;14.492;2023-02-13T12:46:51;7.70;;;4.82;;
75787;SDS011;64406;50.024;14.492;2023-02-13T12:49:30;5.63;;;4.15;;
75787;SDS011;64406;50.024;14.492;2023-02-13T13:01:19;4.43;;;3.40;;
75787;SDS011;64406;50.024;14.492;2023-02-13T13:13:13;7.88;;;3.30;;
75787;SDS011;64406;50.024;14.492;2023-02-13T13:15:55;3.85;;;2.67;;
75787;SDS011;64406;50.024;14.492;2023-02-13T13:19:24;4.07;;;2.53;;
75787;SDS011;64406;50.024;14.492;2023-02-13T13:21:32;3.47;;;2.40;;
75787;SDS011;64406;50.024;14.492;2023-02-13T13:24:20;4.22;;;2.63;;
75787;SDS011;64406;50.024;14.492;2023-02-13T13:26:54;4.60;;;2.97;;
75787;SDS011;64406;50.024;14.492;2023-02-13T13:29:23;5.35;;;2.53;;
75787;SDS011;64406;50.024;14.492;2023-02-13T13:32:01;4.13;;;2.95;;
75787;SDS011;64406;50.024;14.492;2023-02-13T13:34:30;4.90;;;2.90;;
75787;SDS011;64406;50.024;14.492;2023-02-13T13:42:21;3.78;;;2.80;;
75787;SDS011;64406;50.024;14.492;2023-02-13T13:50:22;3.20;;;2.58;;
75787;SDS011;64406;50.024;14.492;2023-02-13T13:58:36;2.35;;;2.15;;
75787;SDS011;64406;50.024;14.492;2023-02-13T14:03:51;3.72;;;2.90;;
75787;SDS011;64406;50.024;14.492;2023-02-13T14:14:49;3.17;;;2.30;;
75787;SDS011;64406;50.024;14.492;2023-02-13T14:17:46;4.18;;;2.60;;
75787;SDS011;64406;50.024;14.492;2023-02-13T14:22:55;3.85;;;2.78;;
75787;SDS011;64406;50.024;14.492;2023-02-13T14:25:22;3.60;;;3.30;;
75787;SDS011;64406;50.024;14.492;2023-02-13T14:27:59;3.50;;;2.95;;
75787;SDS011;64406;50.024;14.492;2023-02-13T14:30:28;4.20;;;2.83;;
75787;SDS011;64406;50.024;14.492;2023-02-13T14:33:05;3.53;;;2.83;;
75787;SDS011;64406;50.024;14.492;2023-02-13T14:35:33;3.72;;;3.08;;
75787;SDS011;64406;50.024;14.492;2023-02-13T14:38:02;3.53;;;3.00;;
75787;SDS011;64406;50.024;14.492;2023-02-13T14:43:19;4.95;;;3.00;;
75787;SDS011;64406;50.024;14.492;2023-02-13T14:48:42;4.72;;;2.85;;
75787;SDS011;64406;50.024;14.492;2023-02-13T14:51:24;5.38;;;3.13;;
75787;SDS011;64406;50.024;14.492;2023-02-13T14:54:03;3.95;;;3.15;;
75787;SDS011;64406;50.024;14.492;2023-02-13T14:56:34;5.00;;;3.47;;
75787;SDS011;64406;50.024;14.492;2023-02-13T14:59:09;6.95;;;3.45;;
75787;SDS011;64406;50.024;14.492;2023-02-13T15:01:46;4.82;;;3.58;;
75787;SDS011;64406;50.024;14.492;2023-02-13T15:04:20;3.80;;;3.20;;
75787;SDS011;64406;50.024;14.492;2023-02-13T15:06:55;6.55;;;4.38;;
75787;SDS011;64406;50.024;14.492;2023-02-13T15:09:34;5.05;;;3.47;;
75787;SDS011;64406;50.024;14.492;2023-02-13T15:12:23;5.40;;;3.88;;
75787;SDS011;64406;50.024;14.492;2023-02-13T15:14:48;5.50;;;3.40;;
75787;SDS011;64406;50.024;14.492;2023-02-13T15:17:18;6.80;;;4.20;;
75787;SDS011;64406;50.024;14.492;2023-02-13T15:19:49;5.40;;;3.90;;
75787;SDS011;64406;50.024;14.492;2023-02-13T15:22:18;6.78;;;4.20;;
75787;SDS011;64406;50.024;14.492;2023-02-13T15:24:46;8.07;;;4.00;;
75787;SDS011;64406;50.024;14.492;2023-02-13T15:27:18;5.15;;;4.10;;
75787;SDS011;64406;50.024;14.492;2023-02-13T15:29:53;8.15;;;4.03;;
75787;SDS011;64406;50.024;14.492;2023-02-13T15:32:25;9.68;;;4.75;;
75787;SDS011;64406;50.024;14.492;2023-02-13T15:34:57;6.25;;;4.05;;
75787;SDS011;64406;50.024;14.492;2023-02-13T15:37:24;5.43;;;3.83;;
75787;SDS011;64406;50.024;14.492;2023-02-13T15:39:52;6.78;;;3.97;;
75787;SDS011;64406;50.024;14.492;2023-02-13T15:42:18;5.63;;;3.60;;
75787;SDS011;64406;50.024;14.492;2023-02-13T15:44:44;5.78;;;4.00;;
75787;SDS011;64406;50.024;14.492;2023-02-13T15:47:15;6.43;;;4.20;;
75787;SDS011;64406;50.024;14.492;2023-02-13T15:49:43;10.73;;;4.78;;
75787;SDS011;64406;50.024;14.492;2023-02-13T15:52:17;6.35;;;4.57;;
75787;SDS011;64406;50.024;14.492;2023-02-13T15:54:53;8.93;;;4.82;;
75787;SDS011;64406;50.024;14.492;2023-02-13T15:57:20;7.05;;;4.97;;
75787;SDS011;64406;50.024;14.492;2023-02-13T15:59:47;6.53;;;4.80;;
75787;SDS011;64406;50.024;14.492;2023-02-13T16:02:18;6.88;;;4.70;;
75787;SDS011;64406;50.024;14.492;2023-02-13T16:04:47;8.95;;;5.40;;
75787;SDS011;64406;50.024;14.492;2023-02-13T16:07:17;11.73;;;4.72;;
75787;SDS011;64406;50.024;14.492;2023-02-13T16:09:42;10.23;;;5.97;;
75787;SDS011;64406;50.024;14.492;2023-02-13T16:12:22;6.32;;;4.88;;
75787;SDS011;64406;50.024;14.492;2023-02-13T16:14:51;8.27;;;5.68;;
75787;SDS011;64406;50.024;14.492;2023-02-13T16:17:25;10.45;;;6.03;;
75787;SDS011;64406;50.024;14.492;2023-02-13T16:20:00;10.25;;;6.05;;
75787;SDS011;64406;50.024;14.492;2023-02-13T16:25:26;12.00;;;6.22;;
75787;SDS011;64406;50.024;14.492;2023-02-13T16:27:59;12.85;;;6.25;;
75787;SDS011;64406;50.024;14.492;2023-02-13T16:35:43;12.63;;;6.45;;
75787;SDS011;64406;50.024;14.492;2023-02-13T16:38:26;10.73;;;6.18;;
75787;SDS011;64406;50.024;14.492;2023-02-13T16:40:52;9.73;;;6.38;;
75787;SDS011;64406;50.024;14.492;2023-02-13T16:43:35;12.88;;;7.20;;
75787;SDS011;64406;50.024;14.492;2023-02-13T16:46:11;10.43;;;5.82;;
75787;SDS011;64406;50.024;14.492;2023-02-13T16:51:28;10.88;;;6.38;;
75787;SDS011;64406;50.024;14.492;2023-02-13T17:02:07;9.65;;;6.20;;
75787;SDS011;64406;50.024;14.492;2023-02-13T17:04:37;10.57;;;6.55;;
75787;SDS011;64406;50.024;14.492;2023-02-13T17:07:03;12.32;;;7.28;;
75787;SDS011;64406;50.024;14.492;2023-02-13T17:09:35;12.02;;;6.40;;
75787;SDS011;64406;50.024;14.492;2023-02-13T17:12:01;14.20;;;6.82;;
75787;SDS011;64406;50.024;14.492;2023-02-13T17:14:27;10.38;;;6.15;;
75787;SDS011;64406;50.024;14.492;2023-02-13T17:16:52;12.20;;;5.72;;
75787;SDS011;64406;50.024;14.492;2023-02-13T17:19:18;11.07;;;6.25;;
75787;SDS011;64406;50.024;14.492;2023-02-13T17:21:44;9.15;;;5.72;;
75787;SDS011;64406;50.024;14.492;2023-02-13T17:24:13;9.40;;;5.45;;
75787;SDS011;64406;50.024;14.492;2023-02-13T17:26:42;9.63;;;5.85;;
75787;SDS011;64406;50.024;14.492;2023-02-13T17:29:08;13.45;;;5.95;;
75787;SDS011;64406;50.024;14.492;2023-02-13T17:31:33;9.60;;;5.90;;